createdAt,value
2019-04-14T00:00:05.444Z,-0.90
2019-04-14T00:01:04.692Z,-0.90
2019-04-14T00:02:05.271Z,-1.00
2019-04-14T00:03:06.569Z,-0.90
2019-04-14T00:04:05.212Z,-1.00
2019-04-14T00:05:06.096Z,-1.00
2019-04-14T00:06:11.247Z,-1.00
2019-04-14T00:07:05.821Z,-1.00
2019-04-14T00:08:04.999Z,-1.00
2019-04-14T00:09:05.697Z,-1.00
2019-04-14T00:10:11.429Z,-1.00
2019-04-14T00:11:06.122Z,-1.10
2019-04-14T00:12:07.375Z,-1.10
2019-04-14T00:13:05.126Z,-1.10
2019-04-14T00:14:05.577Z,-1.10
2019-04-14T00:15:17.573Z,-1.10
2019-04-14T00:16:09.834Z,-1.10
2019-04-14T00:17:04.969Z,-1.10
2019-04-14T00:18:05.510Z,-1.10
2019-04-14T00:19:08.453Z,-1.10
2019-04-14T00:20:05.354Z,-1.20
2019-04-14T00:21:06.484Z,-1.20
2019-04-14T00:22:05.272Z,-1.20
2019-04-14T00:23:06.553Z,-1.20
2019-04-14T00:24:05.194Z,-1.20
2019-04-14T00:25:08.638Z,-1.20
2019-04-14T00:26:05.155Z,-1.20
2019-04-14T00:27:06.334Z,-1.20
2019-04-14T00:28:05.593Z,-1.20
2019-04-14T00:29:04.837Z,-1.20
2019-04-14T00:30:05.455Z,-1.20
2019-04-14T00:31:04.803Z,-1.20
2019-04-14T00:32:05.196Z,-1.20
2019-04-14T00:33:06.237Z,-1.20
2019-04-14T00:34:05.458Z,-1.20
2019-04-14T00:35:08.215Z,-1.20
2019-04-14T00:36:10.825Z,-1.20
2019-04-14T00:37:09.990Z,-1.20
2019-04-14T00:38:08.457Z,-1.20
2019-04-14T00:39:05.753Z,-1.20
2019-04-14T00:40:06.081Z,-1.20
2019-04-14T00:41:05.352Z,-1.20
2019-04-14T00:42:06.648Z,-1.20
2019-04-14T00:43:05.182Z,-1.20
2019-04-14T00:44:05.663Z,-1.20
2019-04-14T00:45:04.958Z,-1.20
2019-04-14T00:46:10.180Z,-1.20
2019-04-14T00:47:07.859Z,-1.20
2019-04-14T00:48:09.562Z,-1.20
2019-04-14T00:49:04.995Z,-1.20
2019-04-14T00:50:05.803Z,-1.20
2019-04-14T00:51:05.142Z,-1.30
2019-04-14T00:52:05.739Z,-1.30
2019-04-14T00:53:05.481Z,-1.30
2019-04-14T00:54:04.746Z,-1.30
2019-04-14T00:55:05.490Z,-1.30
2019-04-14T00:56:06.161Z,-1.30
2019-04-14T00:57:05.458Z,-1.30
2019-04-14T00:58:05.956Z,-1.30
2019-04-14T00:59:05.222Z,-1.30
2019-04-14T01:00:05.956Z,-1.30
2019-04-14T01:01:05.116Z,-1.30
2019-04-14T01:02:05.625Z,-1.30
2019-04-14T01:03:07.363Z,-1.30
2019-04-14T01:04:05.618Z,-1.30
2019-04-14T01:05:07.303Z,-1.30
2019-04-14T01:06:05.613Z,-1.30
2019-04-14T01:07:04.735Z,-1.30
2019-04-14T01:08:05.245Z,-1.40
2019-04-14T01:09:06.366Z,-1.40
2019-04-14T01:10:06.018Z,-1.40
2019-04-14T01:11:05.334Z,-1.40
2019-04-14T01:12:06.045Z,-1.50
2019-04-14T01:13:08.306Z,-1.50
2019-04-14T01:14:05.827Z,-1.50
2019-04-14T01:15:05.055Z,-1.60
2019-04-14T01:16:15.267Z,-1.50
2019-04-14T01:17:06.644Z,-1.60
2019-04-14T01:18:05.692Z,-1.50
2019-04-14T01:19:04.865Z,-1.50
2019-04-14T01:20:07.909Z,-1.50
2019-04-14T01:21:04.921Z,-1.50
2019-04-14T01:22:05.324Z,-1.50
2019-04-14T01:23:06.328Z,-1.50
2019-04-14T01:24:05.702Z,-1.50
2019-04-14T01:25:04.965Z,-1.50
2019-04-14T01:26:05.162Z,-1.50
2019-04-14T01:27:06.029Z,-1.50
2019-04-14T01:28:11.283Z,-1.50
2019-04-14T01:29:08.068Z,-1.50
2019-04-14T01:30:08.714Z,-1.50
2019-04-14T01:31:05.488Z,-1.50
2019-04-14T01:32:04.816Z,-1.50
2019-04-14T01:33:05.647Z,-1.50
2019-04-14T01:34:04.852Z,-1.60
2019-04-14T01:35:05.363Z,-1.50
2019-04-14T01:36:06.059Z,-1.60
2019-04-14T01:37:05.255Z,-1.60
2019-04-14T01:38:05.874Z,-1.60
2019-04-14T01:39:05.122Z,-1.60
2019-04-14T01:40:05.613Z,-1.70
2019-04-14T01:41:08.433Z,-1.70
2019-04-14T01:42:05.627Z,-1.70
2019-04-14T01:43:10.270Z,-1.70
2019-04-14T01:44:09.077Z,-1.70
2019-04-14T01:45:05.653Z,-1.70
2019-04-14T01:46:11.367Z,-1.80
2019-04-14T01:47:05.722Z,-1.80
2019-04-14T01:48:05.973Z,-1.80
2019-04-14T01:49:05.274Z,-1.80
2019-04-14T01:50:05.902Z,-1.80
2019-04-14T01:51:07.615Z,-1.80
2019-04-14T01:52:05.682Z,-1.80
2019-04-14T01:53:05.368Z,-1.90
2019-04-14T01:54:06.033Z,-1.90
2019-04-14T01:55:05.143Z,-1.90
2019-04-14T01:56:05.618Z,-1.90
2019-04-14T01:57:04.782Z,-1.90
2019-04-14T01:58:05.361Z,-2.00
2019-04-14T01:59:05.014Z,-2.00
2019-04-14T02:00:05.396Z,-2.00
2019-04-14T02:01:06.227Z,-2.00
2019-04-14T02:02:05.471Z,-2.00
2019-04-14T02:03:04.738Z,-2.00
2019-04-14T02:04:05.347Z,-2.00
2019-04-14T02:05:10.331Z,-2.00
2019-04-14T02:06:09.264Z,-2.00
2019-04-14T02:07:05.872Z,-2.00
2019-04-14T02:08:04.937Z,-2.00
2019-04-14T02:09:05.346Z,-2.00
2019-04-14T02:10:06.414Z,-2.00
2019-04-14T02:11:05.662Z,-2.00
2019-04-14T02:12:06.154Z,-2.00
2019-04-14T02:13:05.356Z,-2.00
2019-04-14T02:14:10.383Z,-2.10
2019-04-14T02:15:06.664Z,-2.00
2019-04-14T02:16:14.748Z,-2.10
2019-04-14T02:17:06.045Z,-2.00
2019-04-14T02:18:05.586Z,-2.00
2019-04-14T02:19:04.862Z,-2.00
2019-04-14T02:20:05.738Z,-2.00
2019-04-14T02:21:08.453Z,-2.10
2019-04-14T02:22:11.627Z,-2.10
2019-04-14T02:23:05.978Z,-2.10
2019-04-14T02:24:09.142Z,-2.00
2019-04-14T02:25:05.648Z,-2.10
2019-04-14T02:26:04.835Z,-2.10
2019-04-14T02:27:05.540Z,-2.10
2019-04-14T02:28:04.828Z,-2.10
2019-04-14T02:29:05.738Z,-2.10
2019-04-14T02:30:07.185Z,-2.10
2019-04-14T02:31:16.776Z,-2.10
2019-04-14T02:32:32.268Z,-2.20
2019-04-14T02:35:36.555Z,-2.20
2019-04-14T02:36:29.824Z,-2.20
2019-04-14T02:37:33.563Z,-2.10
2019-04-14T02:38:40.425Z,-2.20
2019-04-14T02:39:38.291Z,-2.20
2019-04-14T02:40:36.107Z,-2.20
2019-04-14T02:41:35.544Z,-2.20
2019-04-14T02:42:39.399Z,-2.20
2019-04-14T02:43:37.354Z,-2.20
2019-04-14T02:44:35.966Z,-2.20
2019-04-14T02:45:34.649Z,-2.20
2019-04-14T02:46:30.821Z,-2.20
2019-04-14T02:48:43.981Z,-2.10
2019-04-14T02:49:43.560Z,-2.10
2019-04-14T02:51:25.363Z,-2.10
2019-04-14T02:52:34.742Z,-2.10
2019-04-14T02:53:41.309Z,-2.20
2019-04-14T02:54:35.865Z,-2.20
2019-04-14T02:55:29.439Z,-2.10
2019-04-14T02:56:27.664Z,-2.20
2019-04-14T02:57:29.747Z,-2.10
2019-04-14T02:58:36.002Z,-2.20
2019-04-14T02:59:26.440Z,-2.20
2019-04-14T03:00:31.003Z,-2.20
2019-04-14T03:01:29.398Z,-2.20
2019-04-14T03:02:29.030Z,-2.20
2019-04-14T03:03:30.040Z,-2.20
2019-04-14T03:05:25.946Z,-2.20
2019-04-14T03:07:35.971Z,-2.20
2019-04-14T03:08:31.080Z,-2.20
2019-04-14T03:09:36.140Z,-2.20
2019-04-14T03:10:31.349Z,-2.20
2019-04-14T03:11:30.644Z,-2.20
2019-04-14T03:12:30.898Z,-2.20
2019-04-14T03:13:34.358Z,-2.20
2019-04-14T03:14:30.265Z,-2.20
2019-04-14T03:15:31.595Z,-2.20
2019-04-14T03:16:37.255Z,-2.20
2019-04-14T03:17:36.592Z,-2.20
2019-04-14T03:18:37.596Z,-2.20
2019-04-14T03:19:34.664Z,-2.20
2019-04-14T03:20:31.596Z,-2.20
2019-04-14T03:21:33.710Z,-2.20
2019-04-14T03:22:28.601Z,-2.20
2019-04-14T03:23:32.722Z,-2.20
2019-04-14T03:24:31.182Z,-2.20
2019-04-14T03:25:22.188Z,-2.20
2019-04-14T03:26:24.744Z,-2.20
2019-04-14T03:28:31.550Z,-2.20
2019-04-14T03:30:56.692Z,-2.20
2019-04-14T03:31:49.244Z,-2.20
2019-04-14T03:32:52.003Z,-2.20
2019-04-14T03:34:38.836Z,-2.20
2019-04-14T03:37:14.860Z,-2.20
2019-04-14T03:37:49.820Z,-2.20
2019-04-14T03:38:33.891Z,-2.20
2019-04-14T03:40:33.478Z,-2.20
2019-04-14T03:41:28.919Z,-2.20
2019-04-14T03:43:30.107Z,-2.20
2019-04-14T03:44:34.502Z,-2.20
2019-04-14T03:45:35.497Z,-2.20
2019-04-14T03:46:33.096Z,-2.20
2019-04-14T03:48:52.168Z,-2.10
2019-04-14T03:49:36.670Z,-2.20
2019-04-14T03:50:27.995Z,-2.20
2019-04-14T03:51:36.359Z,-2.20
2019-04-14T03:52:37.340Z,-2.20
2019-04-14T03:53:26.076Z,-2.20
2019-04-14T03:54:19.958Z,-2.20
2019-04-14T03:55:20.071Z,-2.30
2019-04-14T03:56:09.074Z,-2.30
2019-04-14T03:57:06.168Z,-2.30
2019-04-14T03:58:05.911Z,-2.30
2019-04-14T03:59:06.247Z,-2.30
2019-04-14T04:00:05.532Z,-2.30
2019-04-14T04:01:06.138Z,-2.30
2019-04-14T04:02:05.428Z,-2.40
2019-04-14T04:03:10.691Z,-2.40
2019-04-14T04:04:05.341Z,-2.40
2019-04-14T04:05:06.425Z,-2.40
2019-04-14T04:06:05.584Z,-2.40
2019-04-14T04:07:06.172Z,-2.40
2019-04-14T04:08:05.379Z,-2.40
2019-04-14T04:09:08.314Z,-2.40
2019-04-14T04:10:05.332Z,-2.40
2019-04-14T04:11:08.389Z,-2.40
2019-04-14T04:12:05.630Z,-2.40
2019-04-14T04:13:06.155Z,-2.40
2019-04-14T04:14:05.313Z,-2.40
2019-04-14T04:15:08.399Z,-2.40
2019-04-14T04:16:05.019Z,-2.40
2019-04-14T04:17:05.667Z,-2.40
2019-04-14T04:18:05.143Z,-2.40
2019-04-14T04:19:09.090Z,-2.40
2019-04-14T04:20:07.504Z,-2.40
2019-04-14T04:21:05.225Z,-2.40
2019-04-14T04:22:06.366Z,-2.50
2019-04-14T04:23:14.161Z,-2.50
2019-04-14T04:24:10.715Z,-2.50
2019-04-14T04:25:05.329Z,-2.50
2019-04-14T04:26:06.137Z,-2.50
2019-04-14T04:27:05.435Z,-2.40
2019-04-14T04:28:05.979Z,-2.50
2019-04-14T04:29:05.255Z,-2.50
2019-04-14T04:30:05.941Z,-2.40
2019-04-14T04:31:05.159Z,-2.40
2019-04-14T04:32:05.729Z,-2.50
2019-04-14T04:33:04.855Z,-2.40
2019-04-14T04:34:05.385Z,-2.40
2019-04-14T04:35:06.443Z,-2.40
2019-04-14T04:36:05.280Z,-2.50
2019-04-14T04:37:06.044Z,-2.40
2019-04-14T04:38:05.342Z,-2.40
2019-04-14T04:39:08.298Z,-2.40
2019-04-14T04:40:11.459Z,-2.40
2019-04-14T04:41:05.851Z,-2.40
2019-04-14T04:42:05.037Z,-2.40
2019-04-14T04:43:05.843Z,-2.40
2019-04-14T04:44:05.141Z,-2.30
2019-04-14T04:45:08.099Z,-2.30
2019-04-14T04:46:05.212Z,-2.30
2019-04-14T04:47:12.222Z,-2.30
2019-04-14T04:48:06.564Z,-2.30
2019-04-14T04:49:09.463Z,-2.30
2019-04-14T04:50:06.529Z,-2.30
2019-04-14T04:51:05.042Z,-2.30
2019-04-14T04:52:06.237Z,-2.30
2019-04-14T04:53:09.050Z,-2.30
2019-04-14T04:54:10.381Z,-2.30
2019-04-14T04:55:11.192Z,-2.30
2019-04-14T04:56:08.023Z,-2.30
2019-04-14T04:57:05.123Z,-2.40
2019-04-14T04:58:05.805Z,-2.30
2019-04-14T04:59:07.601Z,-2.30
2019-04-14T05:00:05.520Z,-2.30
2019-04-14T05:01:05.631Z,-2.40
2019-04-14T05:02:04.879Z,-2.30
2019-04-14T05:03:07.904Z,-2.30
2019-04-14T05:04:05.200Z,-2.30
2019-04-14T05:05:05.597Z,-2.30
2019-04-14T05:06:04.823Z,-2.30
2019-04-14T05:07:05.558Z,-2.20
2019-04-14T05:08:05.105Z,-2.20
2019-04-14T05:09:05.676Z,-2.20
2019-04-14T05:10:04.903Z,-2.10
2019-04-14T05:11:05.637Z,-2.20
2019-04-14T05:12:04.814Z,-2.10
2019-04-14T05:13:05.759Z,-2.10
2019-04-14T05:14:08.673Z,-2.10
2019-04-14T05:15:05.302Z,-2.10
2019-04-14T05:16:08.482Z,-2.10
2019-04-14T05:17:05.794Z,-2.10
2019-04-14T05:18:05.105Z,-2.00
2019-04-14T05:19:17.007Z,-2.00
2019-04-14T05:20:05.437Z,-2.00
2019-04-14T05:21:06.036Z,-2.00
2019-04-14T05:22:08.987Z,-1.90
2019-04-14T05:23:05.902Z,-2.00
2019-04-14T05:24:09.136Z,-1.90
2019-04-14T05:25:05.745Z,-1.90
2019-04-14T05:26:04.968Z,-1.90
2019-04-14T05:27:10.202Z,-1.90
2019-04-14T05:28:05.393Z,-1.90
2019-04-14T05:29:05.745Z,-1.90
2019-04-14T05:30:04.940Z,-1.80
2019-04-14T05:31:16.353Z,-1.80
2019-04-14T05:32:06.627Z,-1.80
2019-04-14T05:33:09.815Z,-1.80
2019-04-14T05:34:08.606Z,-1.70
2019-04-14T05:35:11.898Z,-1.70
2019-04-14T05:36:06.232Z,-1.70
2019-04-14T05:37:05.506Z,-1.80
2019-04-14T05:38:06.114Z,-1.70
2019-04-14T05:39:05.243Z,-1.70
2019-04-14T05:40:05.866Z,-1.70
2019-04-14T05:41:20.068Z,-1.70
2019-04-14T05:42:12.990Z,-1.70
2019-04-14T05:43:06.630Z,-1.60
2019-04-14T05:44:06.349Z,-1.70
2019-04-14T05:45:06.559Z,-1.70
2019-04-14T05:46:09.960Z,-1.70
2019-04-14T05:47:06.517Z,-1.60
2019-04-14T05:48:05.669Z,-1.60
2019-04-14T05:49:08.496Z,-1.60
2019-04-14T05:50:11.604Z,-1.60
2019-04-14T05:51:06.391Z,-1.60
2019-04-14T05:52:05.639Z,-1.60
2019-04-14T05:53:08.546Z,-1.50
2019-04-14T05:54:05.702Z,-1.50
2019-04-14T05:55:08.669Z,-1.50
2019-04-14T05:56:05.736Z,-1.50
2019-04-14T05:57:08.704Z,-1.40
2019-04-14T05:58:05.697Z,-1.50
2019-04-14T05:59:05.003Z,-1.40
2019-04-14T06:00:08.196Z,-1.40
2019-04-14T06:01:08.913Z,-1.40
2019-04-14T06:02:07.506Z,-1.30
2019-04-14T06:03:05.952Z,-1.40
2019-04-14T06:04:11.350Z,-1.40
2019-04-14T06:05:06.406Z,-1.40
2019-04-14T06:06:04.857Z,-1.30
2019-04-14T06:07:07.538Z,-1.30
2019-04-14T06:08:08.008Z,-1.30
2019-04-14T06:09:07.558Z,-1.30
2019-04-14T06:10:05.549Z,-1.30
2019-04-14T06:11:08.207Z,-1.30
2019-04-14T06:12:05.137Z,-1.30
2019-04-14T06:13:05.310Z,-1.20
2019-04-14T06:14:10.650Z,-1.20
2019-04-14T06:15:05.644Z,-1.20
2019-04-14T06:16:04.780Z,-1.20
2019-04-14T06:17:05.074Z,-1.20
2019-04-14T06:18:05.460Z,-1.20
2019-04-14T06:19:08.143Z,-1.20
2019-04-14T06:20:12.795Z,-1.20
2019-04-14T06:21:04.850Z,-1.20
2019-04-14T06:22:12.556Z,-1.10
2019-04-14T06:23:05.562Z,-1.10
2019-04-14T06:24:08.247Z,-1.10
2019-04-14T06:25:07.743Z,-1.10
2019-04-14T06:26:04.765Z,-1.10
2019-04-14T06:27:07.544Z,-1.00
2019-04-14T06:28:05.589Z,-1.10
2019-04-14T06:29:04.820Z,-1.10
2019-04-14T06:30:04.858Z,-1.10
2019-04-14T06:31:10.033Z,-1.00
2019-04-14T06:32:07.703Z,-1.00
2019-04-14T06:33:05.808Z,-1.00
2019-04-14T06:34:07.631Z,-1.00
2019-04-14T06:35:08.274Z,-1.00
2019-04-14T06:36:07.831Z,-1.00
2019-04-14T06:37:07.347Z,-0.90
2019-04-14T06:38:05.891Z,-1.00
2019-04-14T06:39:07.856Z,-0.90
2019-04-14T06:40:04.810Z,-0.90
2019-04-14T06:41:07.461Z,-0.90
2019-04-14T06:42:05.451Z,-0.90
2019-04-14T06:43:05.650Z,-0.90
2019-04-14T06:44:09.887Z,-0.90
2019-04-14T06:45:04.932Z,-0.90
2019-04-14T06:46:04.799Z,-0.80
2019-04-14T06:47:05.040Z,-0.90
2019-04-14T06:48:05.276Z,-0.90
2019-04-14T06:49:04.984Z,-0.90
2019-04-14T06:50:05.067Z,-0.80
2019-04-14T06:51:07.709Z,-0.80
2019-04-14T06:52:04.735Z,-0.80
2019-04-14T06:53:07.524Z,-0.80
2019-04-14T06:54:05.567Z,-0.80
2019-04-14T06:55:08.195Z,-0.70
2019-04-14T06:56:05.148Z,-0.70
2019-04-14T06:57:07.941Z,-0.70
2019-04-14T06:58:07.463Z,-0.70
2019-04-14T06:59:05.510Z,-0.70
2019-04-14T07:00:08.236Z,-0.70
2019-04-14T07:01:05.331Z,-0.70
2019-04-14T07:02:08.667Z,-0.60
2019-04-14T07:03:04.884Z,-0.70
2019-04-14T07:04:07.539Z,-0.60
2019-04-14T07:05:05.664Z,-0.60
2019-04-14T07:06:04.990Z,-0.60
2019-04-14T07:07:07.672Z,-0.60
2019-04-14T07:08:05.751Z,-0.50
2019-04-14T07:09:04.923Z,-0.60
2019-04-14T07:10:05.146Z,-0.50
2019-04-14T07:11:07.889Z,-0.50
2019-04-14T07:12:04.945Z,-0.50
2019-04-14T07:13:07.925Z,-0.50
2019-04-14T07:14:07.565Z,-0.50
2019-04-14T07:15:05.592Z,-0.50
2019-04-14T07:16:05.681Z,-0.50
2019-04-14T07:17:12.549Z,-0.50
2019-04-14T07:18:08.156Z,-0.50
2019-04-14T07:19:05.205Z,-0.50
2019-04-14T07:20:05.376Z,-0.40
2019-04-14T07:21:05.499Z,-0.40
2019-04-14T07:22:04.865Z,-0.40
2019-04-14T07:23:05.063Z,-0.40
2019-04-14T07:24:05.147Z,-0.40
2019-04-14T07:25:05.381Z,-0.40
2019-04-14T07:26:10.598Z,-0.40
2019-04-14T07:27:08.161Z,-0.30
2019-04-14T07:28:05.220Z,-0.40
2019-04-14T07:29:05.499Z,-0.30
2019-04-14T07:30:08.318Z,-0.30
2019-04-14T07:31:05.392Z,-0.30
2019-04-14T07:32:05.549Z,-0.30
2019-04-14T07:33:07.410Z,-0.20
2019-04-14T07:34:08.140Z,-0.30
2019-04-14T07:35:07.698Z,-0.20
2019-04-14T07:36:07.260Z,-0.20
2019-04-14T07:37:07.756Z,-0.20
2019-04-14T07:38:04.892Z,-0.20
2019-04-14T07:39:05.005Z,-0.10
2019-04-14T07:40:05.043Z,-0.10
2019-04-14T07:41:05.438Z,-0.10
2019-04-14T07:42:13.492Z,-0.10
2019-04-14T07:43:05.493Z,-0.10
2019-04-14T07:44:05.127Z,-0.10
2019-04-14T07:45:07.880Z,0.00
2019-04-14T07:46:04.878Z,0.00
2019-04-14T07:47:07.742Z,0.00
2019-04-14T07:48:07.460Z,0.00
2019-04-14T07:49:05.481Z,0.00
2019-04-14T07:50:14.320Z,0.00
2019-04-14T07:51:05.157Z,0.00
2019-04-14T07:52:05.374Z,0.00
2019-04-14T07:53:05.540Z,0.10
2019-04-14T07:54:07.602Z,0.10
2019-04-14T07:55:07.285Z,0.10
2019-04-14T07:56:05.198Z,0.10
2019-04-14T07:57:05.459Z,0.10
2019-04-14T07:58:05.846Z,0.10
2019-04-14T07:59:05.028Z,0.10
2019-04-14T08:00:07.781Z,0.10
2019-04-14T08:01:07.316Z,0.20
2019-04-14T08:02:05.310Z,0.10
2019-04-14T08:03:08.063Z,0.20
2019-04-14T08:04:05.098Z,0.10
2019-04-14T08:05:07.773Z,0.20
2019-04-14T08:06:07.340Z,0.20
2019-04-14T08:07:05.414Z,0.20
2019-04-14T08:08:08.085Z,0.20
2019-04-14T08:09:05.221Z,0.20
2019-04-14T08:10:05.242Z,0.20
2019-04-14T08:11:05.280Z,0.20
2019-04-14T08:12:05.434Z,0.30
2019-04-14T08:13:05.577Z,0.30
2019-04-14T08:14:09.851Z,0.30
2019-04-14T08:15:05.189Z,0.30
2019-04-14T08:16:05.281Z,0.30
2019-04-14T08:17:05.026Z,0.30
2019-04-14T08:18:05.186Z,0.30
2019-04-14T08:19:07.946Z,0.30
2019-04-14T08:20:05.103Z,0.30
2019-04-14T08:21:07.800Z,0.40
2019-04-14T08:22:07.532Z,0.40
2019-04-14T08:23:08.202Z,0.40
2019-04-14T08:24:05.176Z,0.40
2019-04-14T08:25:07.946Z,0.40
2019-04-14T08:26:05.005Z,0.40
2019-04-14T08:27:05.224Z,0.40
2019-04-14T08:28:05.552Z,0.40
2019-04-14T08:29:05.385Z,0.50
2019-04-14T08:30:05.652Z,0.50
2019-04-14T08:31:04.808Z,0.50
2019-04-14T08:32:04.858Z,0.50
2019-04-14T08:33:05.037Z,0.50
2019-04-14T08:34:07.878Z,0.50
2019-04-14T08:35:04.892Z,0.50
2019-04-14T08:36:05.081Z,0.50
2019-04-14T08:37:07.794Z,0.60
2019-04-14T08:38:04.830Z,0.50
2019-04-14T08:39:07.530Z,0.60
2019-04-14T08:40:05.608Z,0.60
2019-04-14T08:41:04.831Z,0.60
2019-04-14T08:42:04.980Z,0.60
2019-04-14T08:43:05.136Z,0.60
2019-04-14T08:44:05.247Z,0.60
2019-04-14T08:45:05.371Z,0.60
2019-04-14T08:46:07.384Z,0.70
2019-04-14T08:47:08.004Z,0.70
2019-04-14T08:48:10.152Z,0.70
2019-04-14T08:49:05.391Z,0.70
2019-04-14T08:50:05.491Z,0.70
2019-04-14T08:51:05.015Z,0.70
2019-04-14T08:52:07.961Z,0.70
2019-04-14T08:53:04.922Z,0.70
2019-04-14T08:54:07.677Z,0.70
2019-04-14T08:55:08.247Z,0.70
2019-04-14T08:56:05.206Z,0.70
2019-04-14T08:57:07.908Z,0.70
2019-04-14T08:58:07.535Z,0.70
2019-04-14T08:59:05.508Z,0.80
2019-04-14T09:00:05.573Z,0.80
2019-04-14T09:01:05.605Z,0.80
2019-04-14T09:02:04.678Z,0.80
2019-04-14T09:03:05.006Z,0.80
2019-04-14T09:04:05.234Z,0.80
2019-04-14T09:05:05.567Z,0.80
2019-04-14T09:06:07.225Z,0.80
2019-04-14T09:07:05.123Z,0.80
2019-04-14T09:08:05.355Z,0.80
2019-04-14T09:09:07.407Z,0.80
2019-04-14T09:10:10.223Z,0.90
2019-04-14T09:11:05.688Z,0.90
2019-04-14T09:12:14.728Z,0.90
2019-04-14T09:13:10.424Z,0.90
2019-04-14T09:14:08.124Z,1.00
2019-04-14T09:15:07.772Z,0.90
2019-04-14T09:16:04.848Z,1.00
2019-04-14T09:17:08.338Z,1.00
2019-04-14T09:18:10.583Z,1.00
2019-04-14T09:19:07.705Z,1.00
2019-04-14T09:20:05.339Z,1.00
2019-04-14T09:21:08.191Z,1.00
2019-04-14T09:22:05.279Z,1.10
2019-04-14T09:23:05.471Z,1.10
2019-04-14T09:24:08.267Z,1.10
2019-04-14T09:25:05.295Z,1.10
2019-04-14T09:26:07.285Z,1.10
2019-04-14T09:27:05.354Z,1.20
2019-04-14T09:28:05.533Z,1.10
2019-04-14T09:29:05.615Z,1.20
2019-04-14T09:30:05.537Z,1.20
2019-04-14T09:31:08.388Z,1.20
2019-04-14T09:32:05.647Z,1.20
2019-04-14T09:33:05.181Z,1.20
2019-04-14T09:34:07.991Z,1.20
2019-04-14T09:35:05.016Z,1.20
2019-04-14T09:36:05.217Z,1.20
2019-04-14T09:37:05.371Z,1.30
2019-04-14T09:38:08.020Z,1.30
2019-04-14T09:39:05.106Z,1.30
2019-04-14T09:40:05.315Z,1.30
2019-04-14T09:41:05.546Z,1.30
2019-04-14T09:42:09.920Z,1.30
2019-04-14T09:43:04.969Z,1.30
2019-04-14T09:44:05.328Z,1.40
2019-04-14T09:45:05.483Z,1.40
2019-04-14T09:46:05.694Z,1.30
2019-04-14T09:47:04.825Z,1.40
2019-04-14T09:48:04.926Z,1.40
2019-04-14T09:49:05.065Z,1.40
2019-04-14T09:50:05.263Z,1.40
2019-04-14T09:51:10.456Z,1.40
2019-04-14T09:52:08.158Z,1.50
2019-04-14T09:53:07.630Z,1.40
2019-04-14T09:54:05.565Z,1.40
2019-04-14T09:55:08.387Z,1.50
2019-04-14T09:56:05.378Z,1.50
2019-04-14T09:57:05.489Z,1.50
2019-04-14T09:58:05.544Z,1.50
2019-04-14T09:59:10.734Z,1.50
2019-04-14T10:00:04.894Z,1.60
2019-04-14T10:01:15.101Z,1.50
2019-04-14T10:02:07.808Z,1.60
2019-04-14T10:03:05.103Z,1.60
2019-04-14T10:04:08.216Z,1.60
2019-04-14T10:05:07.793Z,1.60
2019-04-14T10:06:07.573Z,1.60
2019-04-14T10:07:05.631Z,1.60
2019-04-14T10:08:10.084Z,1.60
2019-04-14T10:09:05.142Z,1.60
2019-04-14T10:10:07.859Z,1.60
2019-04-14T10:11:07.494Z,1.70
2019-04-14T10:12:05.569Z,1.70
2019-04-14T10:13:04.848Z,1.70
2019-04-14T10:14:07.552Z,1.70
2019-04-14T10:15:07.994Z,1.70
2019-04-14T10:16:07.592Z,1.80
2019-04-14T10:17:05.550Z,1.70
2019-04-14T10:18:08.194Z,1.80
2019-04-14T10:19:07.732Z,1.80
2019-04-14T10:20:08.225Z,1.80
2019-04-14T10:21:16.653Z,1.80
2019-04-14T10:22:07.422Z,1.80
2019-04-14T10:23:05.459Z,1.80
2019-04-14T10:24:04.928Z,1.80
2019-04-14T10:25:04.985Z,1.80
2019-04-14T10:26:05.107Z,1.90
2019-04-14T10:27:07.957Z,1.90
2019-04-14T10:28:07.611Z,1.90
2019-04-14T10:29:05.570Z,1.90
2019-04-14T10:30:05.752Z,1.90
2019-04-14T10:31:12.351Z,1.90
2019-04-14T10:32:05.371Z,1.90
2019-04-14T10:33:05.569Z,1.90
2019-04-14T10:34:05.643Z,2.00
2019-04-14T10:35:04.825Z,2.00
2019-04-14T10:36:07.601Z,2.00
2019-04-14T10:37:05.638Z,2.00
2019-04-14T10:38:04.728Z,2.00
2019-04-14T10:39:07.361Z,2.10
2019-04-14T10:40:06.132Z,2.10
2019-04-14T10:41:05.478Z,2.10
2019-04-14T10:42:08.243Z,2.20
2019-04-14T10:43:05.141Z,2.20
2019-04-14T10:44:04.853Z,2.20
2019-04-14T10:45:04.902Z,2.20
2019-04-14T10:46:07.591Z,2.20
2019-04-14T10:47:05.713Z,2.20
2019-04-14T10:48:04.843Z,2.20
2019-04-14T10:49:07.461Z,2.30
2019-04-14T10:50:07.998Z,2.30
2019-04-14T10:51:07.482Z,2.30
2019-04-14T10:52:05.571Z,2.30
2019-04-14T10:53:05.665Z,2.30
2019-04-14T10:54:04.777Z,2.30
2019-04-14T10:55:04.903Z,2.40
2019-04-14T10:56:07.771Z,2.40
2019-04-14T10:57:04.758Z,2.30
2019-04-14T10:58:07.403Z,2.40
2019-04-14T10:59:07.973Z,2.40
2019-04-14T11:00:04.994Z,2.40
2019-04-14T11:01:05.064Z,2.40
2019-04-14T11:02:07.709Z,2.50
2019-04-14T11:03:05.605Z,2.50
2019-04-14T11:04:07.870Z,2.50
2019-04-14T11:05:07.819Z,2.50
2019-04-14T11:06:07.522Z,2.50
2019-04-14T11:07:05.498Z,2.50
2019-04-14T11:08:05.595Z,2.60
2019-04-14T11:09:05.641Z,2.60
2019-04-14T11:10:12.538Z,2.60
2019-04-14T11:11:05.663Z,2.60
2019-04-14T11:12:07.697Z,2.70
2019-04-14T11:13:08.322Z,2.70
2019-04-14T11:14:05.323Z,2.70
2019-04-14T11:15:05.509Z,2.70
2019-04-14T11:16:05.632Z,2.70
2019-04-14T11:17:08.205Z,2.70
2019-04-14T11:18:05.254Z,2.70
2019-04-14T11:19:05.307Z,2.70
2019-04-14T11:20:07.978Z,2.70
2019-04-14T11:21:07.446Z,2.70
2019-04-14T11:22:08.042Z,2.80
2019-04-14T11:23:05.023Z,2.70
2019-04-14T11:24:05.334Z,2.70
2019-04-14T11:25:05.627Z,2.70
2019-04-14T11:26:07.369Z,2.80
2019-04-14T11:27:05.265Z,2.80
2019-04-14T11:28:05.346Z,2.80
2019-04-14T11:29:05.654Z,2.80
2019-04-14T11:30:07.580Z,2.80
2019-04-14T11:31:05.562Z,2.80
2019-04-14T11:32:05.691Z,2.80
2019-04-14T11:33:07.463Z,2.80
2019-04-14T11:34:06.999Z,2.80
2019-04-14T11:35:07.685Z,2.80
2019-04-14T11:36:05.661Z,2.80
2019-04-14T11:37:07.223Z,2.90
2019-04-14T11:38:05.233Z,2.90
2019-04-14T11:39:07.880Z,2.90
2019-04-14T11:40:04.901Z,2.90
2019-04-14T11:41:05.036Z,2.90
2019-04-14T11:42:05.078Z,2.90
2019-04-14T11:43:05.257Z,2.90
2019-04-14T11:44:07.629Z,2.90
2019-04-14T11:45:05.726Z,2.90
2019-04-14T11:46:04.939Z,2.90
2019-04-14T11:47:07.604Z,2.90
2019-04-14T11:48:05.592Z,2.90
2019-04-14T11:49:07.213Z,2.90
2019-04-14T11:50:12.884Z,3.00
2019-04-14T11:51:04.941Z,3.00
2019-04-14T11:52:05.026Z,3.00
2019-04-14T11:53:07.575Z,3.00
2019-04-14T11:54:05.571Z,3.00
2019-04-14T11:55:05.588Z,3.00
2019-04-14T11:56:08.209Z,3.00
2019-04-14T11:57:05.137Z,3.00
2019-04-14T11:58:08.187Z,3.00
2019-04-14T11:59:05.311Z,3.00
2019-04-14T12:00:08.058Z,3.00
2019-04-14T12:01:04.986Z,3.00
2019-04-14T12:02:05.050Z,3.00
2019-04-14T12:03:07.650Z,3.00
2019-04-14T12:04:08.227Z,3.00
2019-04-14T12:05:10.250Z,3.00
2019-04-14T12:06:10.261Z,3.00
2019-04-14T12:07:05.178Z,3.00
2019-04-14T12:08:07.796Z,3.00
2019-04-14T12:09:10.006Z,3.00
2019-04-14T12:10:07.512Z,3.00
2019-04-14T12:11:05.468Z,3.00
2019-04-14T12:12:05.595Z,3.00
2019-04-14T12:13:04.875Z,3.00
2019-04-14T12:14:07.598Z,3.00
2019-04-14T12:15:07.571Z,3.00
2019-04-14T12:16:05.621Z,3.10
2019-04-14T12:17:07.383Z,3.10
2019-04-14T12:18:05.349Z,3.10
2019-04-14T12:19:05.433Z,3.10
2019-04-14T12:20:08.125Z,3.00
2019-04-14T12:21:10.338Z,3.00
2019-04-14T12:22:08.342Z,3.00
2019-04-14T12:23:04.800Z,3.10
2019-04-14T12:24:09.912Z,3.00
2019-04-14T12:25:04.804Z,3.00
2019-04-14T12:26:05.769Z,3.00
2019-04-14T12:27:07.542Z,3.00
2019-04-14T12:28:11.341Z,3.00
2019-04-14T12:29:14.046Z,3.00
2019-04-14T12:30:08.688Z,3.00
2019-04-14T12:31:07.266Z,3.00
2019-04-14T12:32:06.354Z,3.00
2019-04-14T12:33:08.101Z,3.00
2019-04-14T12:34:07.561Z,3.00
2019-04-14T12:35:07.984Z,3.00
2019-04-14T12:36:07.693Z,3.00
2019-04-14T12:37:08.228Z,3.00
2019-04-14T12:38:05.400Z,3.00
2019-04-14T12:39:05.540Z,3.00
2019-04-14T12:40:05.600Z,3.00
2019-04-14T12:41:06.106Z,2.90
2019-04-14T12:42:07.786Z,3.00
2019-04-14T12:43:04.876Z,2.90
2019-04-14T12:44:04.937Z,3.00
2019-04-14T12:45:07.701Z,3.00
2019-04-14T12:46:06.222Z,3.00
2019-04-14T12:47:05.648Z,3.00
2019-04-14T12:48:07.310Z,3.00
2019-04-14T12:49:05.178Z,3.00
2019-04-14T12:50:04.720Z,3.10
2019-04-14T12:51:04.779Z,3.10
2019-04-14T12:52:04.808Z,3.00
2019-04-14T12:53:05.058Z,3.10
2019-04-14T12:54:05.187Z,3.10
2019-04-14T12:55:07.852Z,3.10
2019-04-14T12:56:04.875Z,3.10
2019-04-14T12:57:05.028Z,3.10
2019-04-14T12:58:05.337Z,3.10
2019-04-14T12:59:05.366Z,3.10
2019-04-14T13:00:05.424Z,3.10
2019-04-14T13:01:05.524Z,3.10
2019-04-14T13:02:04.738Z,3.20
2019-04-14T13:03:04.797Z,3.20
2019-04-14T13:04:07.440Z,3.20
2019-04-14T13:05:05.619Z,3.10
2019-04-14T13:06:04.931Z,3.20
2019-04-14T13:07:05.102Z,3.20
2019-04-14T13:08:05.265Z,3.20
2019-04-14T13:09:05.604Z,3.20
2019-04-14T13:10:07.979Z,3.20
2019-04-14T13:11:05.108Z,3.20
2019-04-14T13:12:10.112Z,3.20
2019-04-14T13:13:05.330Z,3.20
2019-04-14T13:14:05.597Z,3.20
2019-04-14T13:15:07.353Z,3.20
2019-04-14T13:16:07.837Z,3.20